AFL1851 UBBB-UUEE
Flight info
| Callsign | AFL1851 |
|---|---|
| Flight time | N/A |
| Altitude | 36000 |
| Route | EKRAM DCT MOTEG DCT EVZUN DCT ZIZAR DCT VAZLU DCT UZZID DCT NOKLI/K0841F370 N72 WGD G481 OBABI T619 LUGIL/K0845F380 T619 UMRAL/K0846F370 P163 LADIM/K0843F380 P163 GOLRI L736 OLOPI OLOPI3F |
| Aircraft | A320/M-SDE3FGHIRWY/LB1 |
Departure
| Time | 2025-09-10 14:42 |
|---|---|
| Airport | Heydar Aliyev International Airport (UBBB) |
Arrival
| Time | N/A |
|---|---|
| Airport | Sheremetyevo International Airport (UUEE) |
| Time | Latitude | Longitude | Altitude | Speed | Heading |
|---|---|---|---|---|---|
| 2025-09-10 14:21 | 40.46625 | 50.05363 | 8 ft | 0 kts | 268° |
| 2025-09-10 14:30 | 40.46626 | 50.05401 | 8 ft | 3 kts | 268° |
| 2025-09-10 14:30 | 40.46627 | 50.05427 | 8 ft | 3 kts | 268° |
| 2025-09-10 14:30 | 40.46628 | 50.05480 | 8 ft | 3 kts | 279° |
| 2025-09-10 14:31 | 40.46611 | 50.05524 | 10 ft | 2 kts | 323° |
| 2025-09-10 14:32 | 40.46607 | 50.05528 | 11 ft | 0 kts | 326° |
| 2025-09-10 14:34 | 40.46619 | 50.05518 | 9 ft | 5 kts | 326° |
| 2025-09-10 14:34 | 40.46650 | 50.05489 | 8 ft | 11 kts | 326° |
| 2025-09-10 14:35 | 40.46811 | 50.05387 | 8 ft | 13 kts | 348° |
| 2025-09-10 14:35 | 40.46837 | 50.05173 | 9 ft | 14 kts | 269° |
| 2025-09-10 14:36 | 40.46749 | 50.05019 | 9 ft | 10 kts | 204° |
| 2025-09-10 14:36 | 40.46586 | 50.04918 | 9 ft | 12 kts | 209° |
| 2025-09-10 14:37 | 40.46476 | 50.04789 | 9 ft | 12 kts | 208° |
| 2025-09-10 14:37 | 40.46315 | 50.04678 | 9 ft | 12 kts | 210° |
| 2025-09-10 14:38 | 40.46255 | 50.04617 | 10 ft | 10 kts | 242° |
| 2025-09-10 14:38 | 40.46107 | 50.04655 | 9 ft | 19 kts | 159° |
| 2025-09-10 14:39 | 40.45899 | 50.04751 | 9 ft | 13 kts | 172° |
| 2025-09-10 14:39 | 40.45731 | 50.04647 | 10 ft | 15 kts | 238° |
| 2025-09-10 14:40 | 40.45660 | 50.04402 | 9 ft | 14 kts | 250° |
| 2025-09-10 14:40 | 40.45706 | 50.04102 | 10 ft | 13 kts | 346° |
| 2025-09-10 14:41 | 40.46261 | 50.03925 | 9 ft | 96 kts | 347° |
| 2025-09-10 14:41 | 40.47099 | 50.03661 | 13 ft | 145 kts | 347° |
| 2025-09-10 14:42 | 40.49273 | 50.03012 | 1068 ft | 163 kts | 350° |
| 2025-09-10 14:42 | 40.51572 | 50.02326 | 1980 ft | 189 kts | 349° |
| 2025-09-10 14:43 | 40.54459 | 50.01436 | 2798 ft | 226 kts | 347° |
| 2025-09-10 14:43 | 40.57485 | 50.00452 | 4492 ft | 221 kts | 347° |
| 2025-09-10 14:44 | 40.60600 | 49.99400 | 5505 ft | 251 kts | 348° |
| 2025-09-10 14:44 | 40.64335 | 49.99102 | 6498 ft | 283 kts | 4° |
| 2025-09-10 14:44 | 40.64993 | 49.99138 | 6742 ft | 285 kts | 4° |
| 2025-09-10 14:45 | 40.72493 | 49.99459 | 9587 ft | 302 kts | 1° |
| 2025-09-10 14:46 | 40.76906 | 49.99635 | 10458 ft | 336 kts | 0° |
| 2025-09-10 14:46 | 40.81931 | 49.99839 | 10938 ft | 377 kts | 1° |
| 2025-09-10 14:47 | 40.87265 | 50.00066 | 12162 ft | 388 kts | 0° |
| 2025-09-10 14:47 | 40.92736 | 50.00306 | 13525 ft | 395 kts | 359° |
| 2025-09-10 14:47 | 40.95502 | 50.00429 | 14129 ft | 398 kts | 359° |
| 2025-09-10 14:48 | 41.06775 | 50.00844 | 16349 ft | 411 kts | 353° |
| 2025-09-10 14:49 | 41.09583 | 50.00223 | 16860 ft | 408 kts | 339° |
| 2025-09-10 14:49 | 41.16284 | 49.93886 | 18428 ft | 395 kts | 300° |
| 2025-09-10 14:50 | 41.17601 | 49.90725 | 18915 ft | 391 kts | 290° |
| 2025-09-10 14:50 | 41.19901 | 49.84148 | 19886 ft | 395 kts | 290° |
| 2025-09-10 14:51 | 41.22239 | 49.77510 | 20859 ft | 399 kts | 290° |
| 2025-09-10 14:51 | 41.23416 | 49.74166 | 21339 ft | 400 kts | 290° |
| 2025-09-10 14:52 | 41.26967 | 49.64028 | 22735 ft | 406 kts | 289° |
| 2025-09-10 14:52 | 41.29357 | 49.57181 | 23607 ft | 410 kts | 289° |
| 2025-09-10 14:53 | 41.32979 | 49.46792 | 24723 ft | 415 kts | 289° |
| 2025-09-10 14:55 | 41.41120 | 49.23207 | 27064 ft | 425 kts | 289° |
| 2025-09-10 14:57 | 41.51048 | 48.94246 | 29958 ft | 427 kts | 289° |
| 2025-09-10 14:59 | 41.60756 | 48.65605 | 32759 ft | 420 kts | 288° |
| 2025-09-10 15:01 | 41.79901 | 48.43682 | 35418 ft | 482 kts | 347° |
| 2025-09-10 15:03 | 42.03386 | 48.41284 | 36016 ft | 484 kts | 347° |
| 2025-09-10 15:05 | 42.30227 | 48.38447 | 36017 ft | 484 kts | 348° |
| 2025-09-10 15:07 | 42.57106 | 48.35591 | 36038 ft | 483 kts | 348° |
| 2025-09-10 15:09 | 42.83847 | 48.32722 | 36056 ft | 481 kts | 348° |
| 2025-09-10 15:11 | 43.10501 | 48.29847 | 36057 ft | 480 kts | 349° |
| 2025-09-10 15:13 | 43.37121 | 48.26938 | 36063 ft | 480 kts | 349° |
| 2025-09-10 15:15 | 43.63744 | 48.24008 | 36057 ft | 478 kts | 349° |
| 2025-09-10 15:17 | 43.93570 | 48.20699 | 36088 ft | 477 kts | 349° |
| 2025-09-10 15:19 | 44.16686 | 48.18096 | 36088 ft | 476 kts | 350° |
| 2025-09-10 15:21 | 44.46438 | 48.14731 | 36098 ft | 476 kts | 350° |
| 2025-09-10 15:23 | 44.69555 | 48.12093 | 36112 ft | 476 kts | 350° |
| 2025-09-10 15:25 | 44.95902 | 48.09067 | 36125 ft | 474 kts | 350° |
| 2025-09-10 15:27 | 45.21059 | 48.06142 | 36131 ft | 471 kts | 351° |
| 2025-09-10 15:29 | 45.47137 | 48.03085 | 36151 ft | 469 kts | 351° |
| 2025-09-10 15:31 | 45.73163 | 48.00012 | 36161 ft | 466 kts | 351° |
| 2025-09-10 15:33 | 45.98940 | 47.96937 | 36162 ft | 463 kts | 351° |
| 2025-09-10 15:35 | 46.17273 | 47.75836 | 36152 ft | 433 kts | 300° |
| 2025-09-10 15:37 | 46.30416 | 47.46562 | 36163 ft | 434 kts | 300° |
| 2025-09-10 15:39 | 46.43466 | 47.17189 | 36169 ft | 433 kts | 299° |
| 2025-09-10 15:41 | 46.56427 | 46.87689 | 36174 ft | 433 kts | 299° |
| 2025-09-10 15:43 | 46.69331 | 46.58048 | 36171 ft | 433 kts | 299° |
| 2025-09-10 15:45 | 46.82110 | 46.28345 | 36193 ft | 434 kts | 298° |
| 2025-09-10 15:47 | 46.96924 | 46.00884 | 36183 ft | 448 kts | 330° |
| 2025-09-10 15:49 | 47.19544 | 45.85063 | 36210 ft | 449 kts | 330° |
| 2025-09-10 15:50 | 47.39231 | 45.71136 | 36211 ft | 448 kts | 330° |
| 2025-09-10 15:53 | 47.63584 | 45.53791 | 36225 ft | 447 kts | 331° |
| 2025-09-10 15:55 | 47.84816 | 45.35314 | 36222 ft | 440 kts | 315° |
| 2025-09-10 15:57 | 48.03066 | 45.10795 | 36227 ft | 443 kts | 322° |
| 2025-09-10 15:59 | 48.23575 | 44.90166 | 36244 ft | 444 kts | 324° |
| 2025-09-10 16:01 | 48.44109 | 44.69332 | 36267 ft | 444 kts | 324° |
| 2025-09-10 16:03 | 48.64563 | 44.48354 | 36283 ft | 443 kts | 323° |
| 2025-09-10 16:05 | 48.85947 | 44.29923 | 36284 ft | 446 kts | 337° |
| 2025-09-10 16:07 | 49.09196 | 44.16720 | 36304 ft | 446 kts | 337° |
| 2025-09-10 16:09 | 49.32460 | 44.03379 | 36312 ft | 445 kts | 336° |
| 2025-09-10 16:11 | 49.55346 | 43.89182 | 36321 ft | 440 kts | 329° |
| 2025-09-10 16:13 | 49.76831 | 43.71126 | 36319 ft | 439 kts | 329° |
| 2025-09-10 16:15 | 49.98267 | 43.52948 | 36329 ft | 439 kts | 329° |